sensor_id;sensor_type;location;lat;lon;timestamp;pressure;altitude;pressure_sealevel;temperature;humidity
52105;BME280;38103;42.776;23.112;2022-08-01T00:00:32;93916.00;;;16.58;72.19
52105;BME280;38103;42.776;23.112;2022-08-01T00:02:57;93845.72;;;16.17;72.04
52105;BME280;38103;42.776;23.112;2022-08-01T00:05:23;93924.75;;;16.74;71.55
52105;BME280;38103;42.776;23.112;2022-08-01T00:07:48;93923.09;;;16.78;71.89
52105;BME280;38103;42.776;23.112;2022-08-01T00:10:16;93918.06;;;16.71;71.42
52105;BME280;38103;42.776;23.112;2022-08-01T00:12:43;93924.81;;;16.58;71.65
52105;BME280;38103;42.776;23.112;2022-08-01T00:15:11;93915.28;;;16.41;71.90
52105;BME280;38103;42.776;23.112;2022-08-01T00:17:37;93921.66;;;16.40;73.02
52105;BME280;38103;42.776;23.112;2022-08-01T00:20:04;93923.81;;;16.44;73.45
52105;BME280;38103;42.776;23.112;2022-08-01T00:22:31;93837.00;;;15.80;71.58
52105;BME280;38103;42.776;23.112;2022-08-01T00:24:56;93892.16;;;16.05;72.45
52105;BME280;38103;42.776;23.112;2022-08-01T00:27:22;93906.25;;;16.22;72.08
52105;BME280;38103;42.776;23.112;2022-08-01T00:29:47;93909.44;;;16.24;72.17
52105;BME280;38103;42.776;23.112;2022-08-01T00:32:13;93912.91;;;16.24;71.93
52105;BME280;38103;42.776;23.112;2022-08-01T00:34:38;93914.53;;;16.20;72.15
52105;BME280;38103;42.776;23.112;2022-08-01T00:37:04;93916.41;;;16.09;72.41
52105;BME280;38103;42.776;23.112;2022-08-01T00:39:29;93917.19;;;16.04;72.08
52105;BME280;38103;42.776;23.112;2022-08-01T00:41:54;93838.09;;;14.74;75.32
52105;BME280;38103;42.776;23.112;2022-08-01T00:44:20;93915.34;;;15.16;76.08
52105;BME280;38103;42.776;23.112;2022-08-01T00:46:45;93891.91;;;15.18;77.30
52105;BME280;38103;42.776;23.112;2022-08-01T00:49:11;93899.13;;;15.12;77.67
52105;BME280;38103;42.776;23.112;2022-08-01T00:51:36;93914.28;;;15.12;78.46
52105;BME280;38103;42.776;23.112;2022-08-01T00:54:03;93911.63;;;15.12;78.63
52105;BME280;38103;42.776;23.112;2022-08-01T00:56:28;93910.56;;;15.13;78.94
52105;BME280;38103;42.776;23.112;2022-08-01T00:58:55;93915.34;;;15.05;79.31
52105;BME280;38103;42.776;23.112;2022-08-01T01:01:21;93908.44;;;15.10;78.56
52105;BME280;38103;42.776;23.112;2022-08-01T01:03:51;93901.50;;;15.14;77.90
52105;BME280;38103;42.776;23.112;2022-08-01T01:09:19;93893.25;;;15.21;76.78
52105;BME280;38103;42.776;23.112;2022-08-01T01:12:01;93908.16;;;15.01;77.26
52105;BME280;38103;42.776;23.112;2022-08-01T01:16:58;93894.56;;;14.87;78.19
52105;BME280;38103;42.776;23.112;2022-08-01T01:19:28;93893.94;;;14.79;77.82
52105;BME280;38103;42.776;23.112;2022-08-01T01:22:18;93890.03;;;14.92;77.44
52105;BME280;38103;42.776;23.112;2022-08-01T01:25:04;93890.84;;;15.03;76.64
52105;BME280;38103;42.776;23.112;2022-08-01T01:28:20;93883.91;;;15.13;75.91
52105;BME280;38103;42.776;23.112;2022-08-01T01:30:51;93821.00;;;14.59;75.88
52105;BME280;38103;42.776;23.112;2022-08-01T01:33:19;93760.03;;;14.21;76.58
52105;BME280;38103;42.776;23.112;2022-08-01T01:35:49;93877.28;;;15.05;76.26
52105;BME280;38103;42.776;23.112;2022-08-01T01:38:22;93883.13;;;14.91;75.84
52105;BME280;38103;42.776;23.112;2022-08-01T01:40:50;93873.22;;;14.81;76.07
52105;BME280;38103;42.776;23.112;2022-08-01T01:43:17;93873.75;;;14.78;76.34
52105;BME280;38103;42.776;23.112;2022-08-01T01:45:45;93758.59;;;13.87;75.94
52105;BME280;38103;42.776;23.112;2022-08-01T01:48:14;93873.22;;;14.81;76.04
52105;BME280;38103;42.776;23.112;2022-08-01T01:50:42;93850.38;;;14.91;75.46
52105;BME280;38103;42.776;23.112;2022-08-01T01:53:09;93826.88;;;14.72;75.46
52105;BME280;38103;42.776;23.112;2022-08-01T01:55:37;93813.00;;;14.49;75.87
52105;BME280;38103;42.776;23.112;2022-08-01T01:58:04;93860.41;;;14.62;76.12
52105;BME280;38103;42.776;23.112;2022-08-01T02:00:32;93772.25;;;14.12;76.09
52105;BME280;38103;42.776;23.112;2022-08-01T02:03:01;93858.31;;;14.85;76.01
52105;BME280;38103;42.776;23.112;2022-08-01T02:05:27;93854.38;;;14.99;76.06
52105;BME280;38103;42.776;23.112;2022-08-01T02:07:54;93861.19;;;14.63;77.65
52105;BME280;38103;42.776;23.112;2022-08-01T02:10:20;93865.09;;;14.34;78.28
52105;BME280;38103;42.776;23.112;2022-08-01T02:12:48;93858.13;;;14.23;78.35
52105;BME280;38103;42.776;23.112;2022-08-01T02:15:17;93863.75;;;14.26;79.22
52105;BME280;38103;42.776;23.112;2022-08-01T02:17:47;93869.31;;;14.19;78.72
52105;BME280;38103;42.776;23.112;2022-08-01T02:20:14;93744.44;;;13.27;78.51
52105;BME280;38103;42.776;23.112;2022-08-01T02:22:46;93860.75;;;14.17;78.43
52105;BME280;38103;42.776;23.112;2022-08-01T02:27:55;93854.00;;;14.53;78.08
52105;BME280;38103;42.776;23.112;2022-08-01T02:30:26;93851.63;;;14.67;77.76
52105;BME280;38103;42.776;23.112;2022-08-01T02:33:01;93851.91;;;14.71;77.12
52105;BME280;38103;42.776;23.112;2022-08-01T02:35:30;93858.03;;;14.71;77.94
52105;BME280;38103;42.776;23.112;2022-08-01T02:37:57;93859.34;;;14.79;77.43
52105;BME280;38103;42.776;23.112;2022-08-01T02:40:27;93836.38;;;14.31;77.91
52105;BME280;38103;42.776;23.112;2022-08-01T02:42:54;93856.03;;;14.25;78.20
52105;BME280;38103;42.776;23.112;2022-08-01T02:45:24;93854.97;;;14.26;78.44
52105;BME280;38103;42.776;23.112;2022-08-01T02:47:51;93851.28;;;14.32;78.43
52105;BME280;38103;42.776;23.112;2022-08-01T02:50:20;93854.50;;;14.45;78.82
52105;BME280;38103;42.776;23.112;2022-08-01T02:52:48;93830.03;;;14.43;79.08
52105;BME280;38103;42.776;23.112;2022-08-01T02:55:17;93850.25;;;14.49;79.42
52105;BME280;38103;42.776;23.112;2022-08-01T02:57:45;93859.81;;;14.45;80.13
52105;BME280;38103;42.776;23.112;2022-08-01T03:00:13;93853.22;;;14.58;79.64
52105;BME280;38103;42.776;23.112;2022-08-01T03:02:39;93773.56;;;14.09;79.42
52105;BME280;38103;42.776;23.112;2022-08-01T03:05:07;93848.13;;;14.40;80.33
52105;BME280;38103;42.776;23.112;2022-08-01T03:07:34;93840.59;;;14.22;80.89
52105;BME280;38103;42.776;23.112;2022-08-01T03:10:01;93848.81;;;14.20;81.23
52105;BME280;38103;42.776;23.112;2022-08-01T03:12:29;93832.13;;;14.30;80.43
52105;BME280;38103;42.776;23.112;2022-08-01T03:14:57;93844.13;;;14.38;80.11
52105;BME280;38103;42.776;23.112;2022-08-01T03:17:25;93754.06;;;13.82;80.36
52105;BME280;38103;42.776;23.112;2022-08-01T03:19:53;93846.47;;;14.34;81.42
52105;BME280;38103;42.776;23.112;2022-08-01T03:22:21;93845.53;;;13.97;83.41
52105;BME280;38103;42.776;23.112;2022-08-01T03:24:50;93845.81;;;14.01;83.28
52105;BME280;38103;42.776;23.112;2022-08-01T03:27:18;93845.88;;;14.11;83.08
52105;BME280;38103;42.776;23.112;2022-08-01T03:29:44;93846.41;;;14.18;82.58
52105;BME280;38103;42.776;23.112;2022-08-01T03:32:11;93817.06;;;13.92;82.69
52105;BME280;38103;42.776;23.112;2022-08-01T03:34:38;93755.69;;;13.40;83.36
52105;BME280;38103;42.776;23.112;2022-08-01T03:37:20;93853.88;;;14.22;83.08
52105;BME280;38103;42.776;23.112;2022-08-01T03:39:54;93862.44;;;14.34;81.35
52105;BME280;38103;42.776;23.112;2022-08-01T03:42:30;93856.13;;;14.67;80.26
52105;BME280;38103;42.776;23.112;2022-08-01T03:45:04;93858.06;;;14.92;79.22
52105;BME280;38103;42.776;23.112;2022-08-01T03:47:33;93850.13;;;15.34;77.78
52105;BME280;38103;42.776;23.112;2022-08-01T03:50:02;93768.13;;;15.05;76.71
52105;BME280;38103;42.776;23.112;2022-08-01T03:52:29;93851.88;;;15.96;75.16
52105;BME280;38103;42.776;23.112;2022-08-01T03:54:56;93849.19;;;16.23;74.28
52105;BME280;38103;42.776;23.112;2022-08-01T03:57:24;93776.44;;;15.96;73.30
52105;BME280;38103;42.776;23.112;2022-08-01T03:59:53;93856.34;;;16.83;71.74
52105;BME280;38103;42.776;23.112;2022-08-01T04:02:21;93850.31;;;17.07;70.68
52105;BME280;38103;42.776;23.112;2022-08-01T04:04:46;93863.59;;;17.23;69.42
52105;BME280;38103;42.776;23.112;2022-08-01T04:07:27;93855.53;;;17.28;69.61
52105;BME280;38103;42.776;23.112;2022-08-01T04:09:53;93790.94;;;17.21;68.44
52105;BME280;38103;42.776;23.112;2022-08-01T04:12:19;93852.81;;;17.93;66.89
52105;BME280;38103;42.776;23.112;2022-08-01T04:14:45;93853.63;;;18.18;65.42
52105;BME280;38103;42.776;23.112;2022-08-01T04:17:10;93864.56;;;18.47;64.36
52105;BME280;38103;42.776;23.112;2022-08-01T04:19:36;93831.28;;;18.53;63.16
52105;BME280;38103;42.776;23.112;2022-08-01T04:22:02;93863.72;;;19.09;61.98
52105;BME280;38103;42.776;23.112;2022-08-01T04:24:28;93872.75;;;19.33;61.18
52105;BME280;38103;42.776;23.112;2022-08-01T04:26:56;93850.97;;;19.40;60.22
52105;BME280;38103;42.776;23.112;2022-08-01T04:29:23;93768.94;;;19.25;58.85
52105;BME280;38103;42.776;23.112;2022-08-01T04:31:50;93834.19;;;19.96;57.65
52105;BME280;38103;42.776;23.112;2022-08-01T04:34:24;93856.19;;;20.12;56.64
52105;BME280;38103;42.776;23.112;2022-08-01T04:36:52;93849.81;;;20.22;56.48
52105;BME280;38103;42.776;23.112;2022-08-01T04:39:20;93863.13;;;20.41;56.55
52105;BME280;38103;42.776;23.112;2022-08-01T04:41:49;93859.44;;;20.65;56.03
52105;BME280;38103;42.776;23.112;2022-08-01T04:44:16;93864.97;;;20.83;55.74
52105;BME280;38103;42.776;23.112;2022-08-01T04:46:42;93854.38;;;21.01;54.36
52105;BME280;38103;42.776;23.112;2022-08-01T04:49:10;93857.97;;;21.34;53.73
52105;BME280;38103;42.776;23.112;2022-08-01T04:51:37;93865.28;;;21.65;52.57
52105;BME280;38103;42.776;23.112;2022-08-01T04:54:02;93868.56;;;21.85;51.50
52105;BME280;38103;42.776;23.112;2022-08-01T04:56:27;93860.13;;;22.01;51.54
52105;BME280;38103;42.776;23.112;2022-08-01T04:58:53;93859.72;;;22.25;51.57
52105;BME280;38103;42.776;23.112;2022-08-01T05:01:37;93856.63;;;22.41;49.25
52105;BME280;38103;42.776;23.112;2022-08-01T05:04:02;93861.06;;;22.46;49.30
52105;BME280;38103;42.776;23.112;2022-08-01T05:06:28;93854.53;;;22.29;50.15
52105;BME280;38103;42.776;23.112;2022-08-01T05:08:53;93850.03;;;22.65;49.71
52105;BME280;38103;42.776;23.112;2022-08-01T05:11:18;93857.06;;;23.02;48.64
52105;BME280;38103;42.776;23.112;2022-08-01T05:13:44;93855.63;;;23.22;47.73
52105;BME280;38103;42.776;23.112;2022-08-01T05:16:09;93861.03;;;23.40;47.60
52105;BME280;38103;42.776;23.112;2022-08-01T05:18:34;93853.41;;;23.60;46.57
52105;BME280;38103;42.776;23.112;2022-08-01T05:21:00;93842.44;;;23.56;46.61
52105;BME280;38103;42.776;23.112;2022-08-01T05:23:27;93857.16;;;23.76;46.64
52105;BME280;38103;42.776;23.112;2022-08-01T05:25:52;93856.66;;;23.92;45.84
52105;BME280;38103;42.776;23.112;2022-08-01T05:28:17;93857.63;;;23.87;44.43
52105;BME280;38103;42.776;23.112;2022-08-01T05:30:43;93748.50;;;23.40;45.02
52105;BME280;38103;42.776;23.112;2022-08-01T05:33:08;93845.75;;;24.19;44.45
52105;BME280;38103;42.776;23.112;2022-08-01T05:35:34;93843.91;;;24.50;44.46
52105;BME280;38103;42.776;23.112;2022-08-01T05:37:59;93850.50;;;24.61;42.61
52105;BME280;38103;42.776;23.112;2022-08-01T05:40:25;93850.44;;;24.70;42.07
52105;BME280;38103;42.776;23.112;2022-08-01T05:42:50;93864.63;;;24.67;43.22
52105;BME280;38103;42.776;23.112;2022-08-01T05:45:15;93857.72;;;25.00;42.71
52105;BME280;38103;42.776;23.112;2022-08-01T05:47:41;93862.31;;;25.30;42.17
52105;BME280;38103;42.776;23.112;2022-08-01T05:50:07;93856.50;;;25.40;40.83
52105;BME280;38103;42.776;23.112;2022-08-01T05:52:32;93859.72;;;25.67;40.89
52105;BME280;38103;42.776;23.112;2022-08-01T05:54:58;93858.91;;;25.88;40.72
52105;BME280;38103;42.776;23.112;2022-08-01T05:57:23;93860.41;;;26.11;39.87
52105;BME280;38103;42.776;23.112;2022-08-01T05:59:48;93863.38;;;26.31;39.93
52105;BME280;38103;42.776;23.112;2022-08-01T06:02:14;93871.53;;;26.43;39.26
52105;BME280;38103;42.776;23.112;2022-08-01T06:04:39;93862.59;;;26.43;39.06
52105;BME280;38103;42.776;23.112;2022-08-01T06:07:04;93855.03;;;26.36;37.75
52105;BME280;38103;42.776;23.112;2022-08-01T06:09:30;93843.75;;;26.72;38.08
52105;BME280;38103;42.776;23.112;2022-08-01T06:11:56;93856.88;;;26.98;36.98
52105;BME280;38103;42.776;23.112;2022-08-01T06:14:21;93862.00;;;27.13;37.24
52105;BME280;38103;42.776;23.112;2022-08-01T06:16:46;93865.06;;;27.40;36.87
52105;BME280;38103;42.776;23.112;2022-08-01T06:19:12;93857.88;;;27.31;37.65
52105;BME280;38103;42.776;23.112;2022-08-01T06:21:37;93859.19;;;27.38;36.73
52105;BME280;38103;42.776;23.112;2022-08-01T06:24:03;93850.91;;;27.05;35.68
52105;BME280;38103;42.776;23.112;2022-08-01T06:26:28;93841.91;;;26.76;36.52
52105;BME280;38103;42.776;23.112;2022-08-01T06:28:54;93849.78;;;26.94;36.93
52105;BME280;38103;42.776;23.112;2022-08-01T06:31:19;93852.19;;;27.37;36.68
52105;BME280;38103;42.776;23.112;2022-08-01T06:33:44;93845.25;;;27.10;35.43
52105;BME280;38103;42.776;23.112;2022-08-01T06:36:10;93856.84;;;27.52;35.67
52105;BME280;38103;42.776;23.112;2022-08-01T06:38:35;93854.28;;;27.72;34.83
52105;BME280;38103;42.776;23.112;2022-08-01T06:41:01;93837.16;;;27.55;34.73
52105;BME280;38103;42.776;23.112;2022-08-01T06:43:26;93849.56;;;27.69;35.03
52105;BME280;38103;42.776;23.112;2022-08-01T06:45:51;93841.19;;;27.45;36.41
52105;BME280;38103;42.776;23.112;2022-08-01T06:48:17;93826.97;;;27.65;35.50
52105;BME280;38103;42.776;23.112;2022-08-01T06:50:42;93845.56;;;27.50;34.48
52105;BME280;38103;42.776;23.112;2022-08-01T06:53:08;93835.56;;;27.38;34.84
52105;BME280;38103;42.776;23.112;2022-08-01T06:55:33;93835.25;;;27.27;35.93
52105;BME280;38103;42.776;23.112;2022-08-01T06:57:59;93820.44;;;27.25;35.36
52105;BME280;38103;42.776;23.112;2022-08-01T07:00:25;93832.94;;;27.00;35.75
52105;BME280;38103;42.776;23.112;2022-08-01T07:02:56;93819.47;;;27.17;34.94
52105;BME280;38103;42.776;23.112;2022-08-01T07:05:22;93777.75;;;26.67;36.42
52105;BME280;38103;42.776;23.112;2022-08-01T07:07:48;93827.56;;;27.29;34.81
52105;BME280;38103;42.776;23.112;2022-08-01T07:10:13;93823.16;;;27.25;36.07
52105;BME280;38103;42.776;23.112;2022-08-01T07:12:39;93827.69;;;26.79;37.05
52105;BME280;38103;42.776;23.112;2022-08-01T07:15:07;93819.78;;;26.74;37.04
52105;BME280;38103;42.776;23.112;2022-08-01T07:17:37;93828.25;;;26.72;37.58
52105;BME280;38103;42.776;23.112;2022-08-01T07:20:03;93826.81;;;26.50;37.65
52105;BME280;38103;42.776;23.112;2022-08-01T07:22:29;93824.00;;;26.46;37.85
52105;BME280;38103;42.776;23.112;2022-08-01T07:24:54;93819.13;;;26.52;36.58
52105;BME280;38103;42.776;23.112;2022-08-01T07:27:20;93824.31;;;26.57;38.22
52105;BME280;38103;42.776;23.112;2022-08-01T07:29:45;93811.66;;;26.36;37.54
52105;BME280;38103;42.776;23.112;2022-08-01T07:32:11;93832.66;;;26.52;37.45
52105;BME280;38103;42.776;23.112;2022-08-01T07:34:36;93811.88;;;26.18;39.23
52105;BME280;38103;42.776;23.112;2022-08-01T07:37:01;93807.81;;;25.87;38.74
52105;BME280;38103;42.776;23.112;2022-08-01T07:39:27;93821.81;;;26.14;39.29
52105;BME280;38103;42.776;23.112;2022-08-01T07:41:52;93826.88;;;26.03;39.78
52105;BME280;38103;42.776;23.112;2022-08-01T07:44:17;93825.31;;;25.55;39.23
52105;BME280;38103;42.776;23.112;2022-08-01T07:46:43;93823.41;;;25.56;40.50
52105;BME280;38103;42.776;23.112;2022-08-01T07:49:08;93820.38;;;25.70;39.79
52105;BME280;38103;42.776;23.112;2022-08-01T07:51:34;93806.66;;;25.75;39.43
52105;BME280;38103;42.776;23.112;2022-08-01T07:53:59;93834.13;;;25.65;40.67
52105;BME280;38103;42.776;23.112;2022-08-01T07:56:24;93828.53;;;25.83;39.68
52105;BME280;38103;42.776;23.112;2022-08-01T07:58:51;93822.34;;;25.82;38.85
52105;BME280;38103;42.776;23.112;2022-08-01T08:01:16;93821.56;;;25.82;39.63
52105;BME280;38103;42.776;23.112;2022-08-01T08:03:42;93829.94;;;25.33;40.40
52105;BME280;38103;42.776;23.112;2022-08-01T08:06:08;93815.94;;;25.53;39.88
52105;BME280;38103;42.776;23.112;2022-08-01T08:08:33;93828.13;;;25.59;39.81
52105;BME280;38103;42.776;23.112;2022-08-01T08:11:00;93817.94;;;25.90;39.83
52105;BME280;38103;42.776;23.112;2022-08-01T08:13:25;93813.09;;;25.96;40.08
52105;BME280;38103;42.776;23.112;2022-08-01T08:15:51;93836.03;;;25.98;39.61
52105;BME280;38103;42.776;23.112;2022-08-01T08:18:16;93827.63;;;25.78;38.26
52105;BME280;38103;42.776;23.112;2022-08-01T08:20:43;93833.53;;;25.93;38.20
52105;BME280;38103;42.776;23.112;2022-08-01T08:23:08;93833.53;;;25.93;38.25
52105;BME280;38103;42.776;23.112;2022-08-01T08:25:52;93823.19;;;25.61;38.80
52105;BME280;38103;42.776;23.112;2022-08-01T08:28:18;93825.81;;;25.49;38.67
52105;BME280;38103;42.776;23.112;2022-08-01T08:30:43;93830.09;;;25.16;38.95
52105;BME280;38103;42.776;23.112;2022-08-01T08:33:08;93845.81;;;25.01;39.11
52105;BME280;38103;42.776;23.112;2022-08-01T08:35:34;93840.97;;;24.85;40.42
52105;BME280;38103;42.776;23.112;2022-08-01T08:37:59;93849.72;;;24.82;40.46
52105;BME280;38103;42.776;23.112;2022-08-01T08:40:29;93837.53;;;24.97;40.85
52105;BME280;38103;42.776;23.112;2022-08-01T08:42:55;93843.41;;;24.78;40.44
52105;BME280;38103;42.776;23.112;2022-08-01T08:45:21;93844.59;;;24.89;39.68
52105;BME280;38103;42.776;23.112;2022-08-01T08:47:47;93841.16;;;24.80;40.51
52105;BME280;38103;42.776;23.112;2022-08-01T08:50:15;93853.97;;;24.71;41.90
52105;BME280;38103;42.776;23.112;2022-08-01T08:52:42;93838.06;;;24.91;41.16
52105;BME280;38103;42.776;23.112;2022-08-01T08:55:09;93849.78;;;25.04;40.26
52105;BME280;38103;42.776;23.112;2022-08-01T08:57:39;93839.31;;;24.93;38.59
52105;BME280;38103;42.776;23.112;2022-08-01T09:00:05;93846.84;;;24.87;39.60
52105;BME280;38103;42.776;23.112;2022-08-01T09:02:31;93844.31;;;24.82;39.14
52105;BME280;38103;42.776;23.112;2022-08-01T09:04:57;93832.59;;;24.78;40.03
52105;BME280;38103;42.776;23.112;2022-08-01T09:07:22;93820.59;;;24.88;39.35
52105;BME280;38103;42.776;23.112;2022-08-01T09:09:50;93817.47;;;24.77;40.10
52105;BME280;38103;42.776;23.112;2022-08-01T09:12:17;93784.78;;;24.70;39.37
52105;BME280;38103;42.776;23.112;2022-08-01T09:14:47;93812.94;;;24.69;39.58
52105;BME280;38103;42.776;23.112;2022-08-01T09:17:12;93809.38;;;24.77;39.66
52105;BME280;38103;42.776;23.112;2022-08-01T09:19:47;93811.69;;;24.87;41.68
52105;BME280;38103;42.776;23.112;2022-08-01T09:22:16;93821.84;;;24.91;41.66
52105;BME280;38103;42.776;23.112;2022-08-01T09:24:59;93806.94;;;24.84;42.19
52105;BME280;38103;42.776;23.112;2022-08-01T09:27:25;93813.47;;;24.83;44.05
52105;BME280;38103;42.776;23.112;2022-08-01T09:29:52;93815.03;;;24.84;44.41
52105;BME280;38103;42.776;23.112;2022-08-01T09:32:18;93809.91;;;24.92;41.51
52105;BME280;38103;42.776;23.112;2022-08-01T09:34:44;93818.56;;;24.63;42.92
52105;BME280;38103;42.776;23.112;2022-08-01T09:37:12;93810.97;;;24.78;41.84
52105;BME280;38103;42.776;23.112;2022-08-01T09:39:39;93815.59;;;24.99;45.93
52105;BME280;38103;42.776;23.112;2022-08-01T09:42:22;93805.75;;;25.16;43.06
52105;BME280;38103;42.776;23.112;2022-08-01T09:44:48;93814.56;;;25.13;41.75
52105;BME280;38103;42.776;23.112;2022-08-01T09:47:15;93817.47;;;25.07;42.71
52105;BME280;38103;42.776;23.112;2022-08-01T09:49:42;93807.47;;;25.20;41.67
52105;BME280;38103;42.776;23.112;2022-08-01T09:52:19;93805.25;;;25.22;43.75
52105;BME280;38103;42.776;23.112;2022-08-01T09:55:11;93800.34;;;25.16;41.55
52105;BME280;38103;42.776;23.112;2022-08-01T09:57:37;93790.06;;;25.30;42.26
52105;BME280;38103;42.776;23.112;2022-08-01T10:00:03;93773.22;;;25.25;41.51
52105;BME280;38103;42.776;23.112;2022-08-01T10:02:38;93795.34;;;24.84;40.44
52105;BME280;38103;42.776;23.112;2022-08-01T10:05:07;93783.66;;;24.92;40.68
52105;BME280;38103;42.776;23.112;2022-08-01T10:07:34;93805.97;;;25.10;40.56
52105;BME280;38103;42.776;23.112;2022-08-01T10:10:11;93805.28;;;24.92;41.98
52105;BME280;38103;42.776;23.112;2022-08-01T10:12:37;93809.03;;;25.00;39.47
52105;BME280;38103;42.776;23.112;2022-08-01T10:15:03;93800.94;;;25.00;40.13
52105;BME280;38103;42.776;23.112;2022-08-01T10:17:29;93809.16;;;25.13;40.15
52105;BME280;38103;42.776;23.112;2022-08-01T10:19:55;93802.00;;;25.29;39.09
52105;BME280;38103;42.776;23.112;2022-08-01T10:22:23;93792.88;;;25.34;38.98
52105;BME280;38103;42.776;23.112;2022-08-01T10:24:52;93796.41;;;25.47;38.70
52105;BME280;38103;42.776;23.112;2022-08-01T10:27:19;93771.69;;;25.02;39.86
52105;BME280;38103;42.776;23.112;2022-08-01T10:29:55;93792.69;;;25.18;38.16
52105;BME280;38103;42.776;23.112;2022-08-01T10:32:22;93762.41;;;24.82;39.39
52105;BME280;38103;42.776;23.112;2022-08-01T10:34:52;93796.06;;;24.93;40.24
52105;BME280;38103;42.776;23.112;2022-08-01T10:37:17;93801.34;;;24.68;39.91
52105;BME280;38103;42.776;23.112;2022-08-01T10:39:43;93771.84;;;24.54;41.81
52105;BME280;38103;42.776;23.112;2022-08-01T10:42:11;93791.56;;;24.97;42.95
52105;BME280;38103;42.776;23.112;2022-08-01T10:44:37;93779.44;;;25.25;38.58
52105;BME280;38103;42.776;23.112;2022-08-01T10:47:08;93789.31;;;25.21;40.31
52105;BME280;38103;42.776;23.112;2022-08-01T10:49:48;93791.75;;;25.35;39.90
52105;BME280;38103;42.776;23.112;2022-08-01T10:52:17;93789.16;;;25.39;40.35
52105;BME280;38103;42.776;23.112;2022-08-01T10:54:43;93774.03;;;25.25;40.79
52105;BME280;38103;42.776;23.112;2022-08-01T10:57:08;93793.91;;;25.42;38.92
52105;BME280;38103;42.776;23.112;2022-08-01T10:59:35;93791.19;;;25.42;39.21
52105;BME280;38103;42.776;23.112;2022-08-01T11:02:25;93779.03;;;25.36;39.23
52105;BME280;38103;42.776;23.112;2022-08-01T11:05:26;93782.41;;;25.45;39.32
52105;BME280;38103;42.776;23.112;2022-08-01T11:07:53;93773.63;;;25.36;40.44
52105;BME280;38103;42.776;23.112;2022-08-01T11:10:22;93784.16;;;25.28;39.28
52105;BME280;38103;42.776;23.112;2022-08-01T11:12:49;93780.13;;;25.35;40.40
52105;BME280;38103;42.776;23.112;2022-08-01T11:20:23;93771.97;;;25.22;41.63
52105;BME280;38103;42.776;23.112;2022-08-01T11:25:24;93778.75;;;25.28;39.89
52105;BME280;38103;42.776;23.112;2022-08-01T11:31:24;93776.59;;;25.55;42.43
52105;BME280;38103;42.776;23.112;2022-08-01T11:33:50;93758.66;;;25.63;38.67
52105;BME280;38103;42.776;23.112;2022-08-01T11:36:17;93769.91;;;25.06;40.36
52105;BME280;38103;42.776;23.112;2022-08-01T11:41:13;93765.59;;;25.05;40.95
52105;BME280;38103;42.776;23.112;2022-08-01T11:43:59;93769.69;;;25.11;41.91
52105;BME280;38103;42.776;23.112;2022-08-01T11:52:15;93748.06;;;25.11;39.22
52105;BME280;38103;42.776;23.112;2022-08-01T11:54:46;93755.06;;;25.13;40.10
52105;BME280;38103;42.776;23.112;2022-08-01T11:57:24;93757.28;;;25.10;39.25
52105;BME280;38103;42.776;23.112;2022-08-01T11:59:56;93755.06;;;25.13;40.07
52105;BME280;38103;42.776;23.112;2022-08-01T12:02:30;93763.84;;;25.09;38.73
52105;BME280;38103;42.776;23.112;2022-08-01T12:05:02;93759.00;;;24.94;39.44
52105;BME280;38103;42.776;23.112;2022-08-01T12:07:29;93757.28;;;25.10;40.36
52105;BME280;38103;42.776;23.112;2022-08-01T12:12:31;93754.28;;;25.25;40.73
52105;BME280;38103;42.776;23.112;2022-08-01T12:14:58;93749.47;;;25.30;40.33
52105;BME280;38103;42.776;23.112;2022-08-01T12:17:57;93745.88;;;25.39;39.64
52105;BME280;38103;42.776;23.112;2022-08-01T12:20:24;93753.34;;;25.54;41.58
52105;BME280;38103;42.776;23.112;2022-08-01T12:23:15;93743.41;;;25.46;41.58
52105;BME280;38103;42.776;23.112;2022-08-01T12:25:39;93749.94;;;25.45;39.54
52105;BME280;38103;42.776;23.112;2022-08-01T12:28:07;93737.66;;;25.48;39.50
52105;BME280;38103;42.776;23.112;2022-08-01T12:30:34;93763.50;;;25.58;39.72
52105;BME280;38103;42.776;23.112;2022-08-01T12:33:01;93758.31;;;25.65;41.43
52105;BME280;38103;42.776;23.112;2022-08-01T12:35:29;93755.84;;;25.72;40.18
52105;BME280;38103;42.776;23.112;2022-08-01T12:37:57;93755.41;;;25.70;38.83
52105;BME280;38103;42.776;23.112;2022-08-01T12:40:24;93722.09;;;25.44;38.07
52105;BME280;38103;42.776;23.112;2022-08-01T12:42:56;93751.28;;;25.39;40.03
52105;BME280;38103;42.776;23.112;2022-08-01T12:45:25;93748.13;;;25.49;38.92
52105;BME280;38103;42.776;23.112;2022-08-01T12:47:52;93743.94;;;25.73;40.92
52105;BME280;38103;42.776;23.112;2022-08-01T12:50:20;93742.34;;;25.85;41.65
52105;BME280;38103;42.776;23.112;2022-08-01T12:52:46;93739.44;;;26.03;40.78
52105;BME280;38103;42.776;23.112;2022-08-01T12:55:17;93736.94;;;26.10;38.92
52105;BME280;38103;42.776;23.112;2022-08-01T12:57:48;93738.50;;;25.98;37.62
52105;BME280;38103;42.776;23.112;2022-08-01T13:00:25;93732.22;;;25.94;39.18
52105;BME280;38103;42.776;23.112;2022-08-01T13:03:10;93731.75;;;25.80;39.64
52105;BME280;38103;42.776;23.112;2022-08-01T13:05:58;93733.22;;;25.89;39.14
52105;BME280;38103;42.776;23.112;2022-08-01T13:08:32;93727.00;;;26.02;38.29
52105;BME280;38103;42.776;23.112;2022-08-01T13:11:03;93735.56;;;26.16;40.04
52105;BME280;38103;42.776;23.112;2022-08-01T13:13:43;93731.50;;;25.85;36.88
52105;BME280;38103;42.776;23.112;2022-08-01T13:16:12;93729.28;;;25.87;39.28
52105;BME280;38103;42.776;23.112;2022-08-01T13:18:37;93725.88;;;25.90;39.10
52105;BME280;38103;42.776;23.112;2022-08-01T13:21:10;93729.94;;;25.96;39.60
52105;BME280;38103;42.776;23.112;2022-08-01T13:23:37;93723.38;;;25.85;38.19
52105;BME280;38103;42.776;23.112;2022-08-01T13:26:03;93734.34;;;25.88;40.58